Time;durP1;ratioP1;P1;durP2;ratioP2;P2;SDS_P1;SDS_P2;PMS_P1;PMS_P2;Temp;Humidity;BMP_temperature;BMP_pressure;BME280_temperature;BME280_humidity;BME280_pressure;Samples;Min_cycle;Max_cycle;Signal;HPM_P1;HPM_P2
2023/03/17 00:00:35;;;;;;;6.40;4.63;;;2.90;99.90;;;;;;5021252;28;20098;-84
2023/03/17 00:03:02;;;;;;;6.57;4.65;;;2.90;99.90;;;;;;5017097;28;20018;-82
2023/03/17 00:05:34;;;;;;;6.07;4.20;;;2.90;99.90;;;;;;5023962;28;20045;-84
2023/03/17 00:08:14;;;;;;;7.55;5.82;;;2.80;99.90;;;;;;5025352;28;20377;-85
2023/03/17 00:10:41;;;;;;;8.27;4.43;;;2.80;99.90;;;;;;5026324;28;20017;-87
2023/03/17 00:13:11;;;;;;;10.15;5.32;;;2.80;99.90;;;;;;5029032;28;20060;-87
2023/03/17 00:15:37;;;;;;;6.68;4.68;;;2.80;99.90;;;;;;5030500;28;20034;-86
2023/03/17 00:18:03;;;;;;;7.90;4.60;;;2.80;99.90;;;;;;5027007;28;20025;-86
2023/03/17 00:20:31;;;;;;;6.88;4.20;;;2.80;99.90;;;;;;5050154;28;20356;-86
2023/03/17 00:23:04;;;;;;;6.65;3.85;;;2.80;99.90;;;;;;5046287;28;20090;-86
2023/03/17 00:25:33;;;;;;;7.70;4.50;;;2.80;99.90;;;;;;5043489;28;20081;-86
2023/03/17 00:28:02;;;;;;;9.50;4.32;;;2.70;99.90;;;;;;5046950;28;20364;-86
2023/03/17 00:30:28;;;;;;;5.53;3.78;;;2.70;99.90;;;;;;5038389;28;20124;-86
2023/03/17 00:32:57;;;;;;;5.43;3.85;;;2.80;99.90;;;;;;5028189;28;20033;-86
2023/03/17 00:35:26;;;;;;;6.82;4.32;;;2.70;99.90;;;;;;5020380;28;20422;-87
2023/03/17 00:37:54;;;;;;;7.90;5.32;;;2.70;99.90;;;;;;5020739;28;20049;-86
2023/03/17 00:40:28;;;;;;;8.70;4.63;;;2.70;99.90;;;;;;5025364;28;20025;-85
2023/03/17 00:42:54;;;;;;;6.25;4.15;;;2.70;99.90;;;;;;5032270;28;20538;-87
2023/03/17 00:45:22;;;;;;;10.57;5.50;;;2.70;99.90;;;;;;5021647;28;20022;-87
2023/03/17 00:47:49;;;;;;;;;;;2.70;99.90;;;;;;5023161;28;20106;-87
2023/03/17 00:50:18;;;;;;;6.30;4.88;;;2.70;99.90;;;;;;5036821;28;19932;-87
2023/03/17 00:52:45;;;;;;;6.88;4.93;;;2.60;99.90;;;;;;5042572;28;20025;-87
2023/03/17 00:55:11;;;;;;;13.13;5.95;;;2.60;99.90;;;;;;5028647;28;20049;-85
2023/03/17 00:57:39;;;;;;;11.80;5.20;;;2.70;99.90;;;;;;5041273;28;20034;-87
2023/03/17 01:00:06;;;;;;;;;;;2.60;99.90;;;;;;5042680;28;20490;-87
2023/03/17 01:02:32;;;;;;;10.68;6.50;;;2.70;99.90;;;;;;5029202;28;19917;-86
2023/03/17 01:04:59;;;;;;;11.25;5.95;;;2.70;99.90;;;;;;5030081;28;20022;-87
2023/03/17 01:07:27;;;;;;;10.82;6.38;;;2.60;99.90;;;;;;5044536;28;20093;-86
2023/03/17 01:09:53;;;;;;;;;;;2.60;99.90;;;;;;5025271;28;20049;-86
2023/03/17 01:12:20;;;;;;;11.52;6.00;;;2.60;99.90;;;;;;5028920;28;19914;-88
2023/03/17 01:14:47;;;;;;;;;;;2.60;99.90;;;;;;5031533;28;20084;-86
2023/03/17 01:17:17;;;;;;;8.32;5.40;;;2.60;99.90;;;;;;5038010;28;19971;-86
2023/03/17 01:19:44;;;;;;;11.07;7.82;;;2.60;99.90;;;;;;5015573;28;20093;-84
2023/03/17 01:22:10;;;;;;;12.70;7.25;;;2.60;99.90;;;;;;5030058;28;20079;-84
2023/03/17 01:24:36;;;;;;;10.80;6.93;;;2.60;99.90;;;;;;5031716;28;20433;-84
2023/03/17 01:27:03;;;;;;;8.77;6.13;;;2.60;99.90;;;;;;5037983;28;20085;-83
2023/03/17 01:29:29;;;;;;;13.07;7.20;;;2.60;99.90;;;;;;5026096;28;20068;-84
2023/03/17 01:31:55;;;;;;;9.23;6.32;;;2.60;99.90;;;;;;5037166;28;20034;-85
2023/03/17 01:34:22;;;;;;;10.95;5.78;;;2.60;99.90;;;;;;5020311;28;20034;-85
2023/03/17 01:36:49;;;;;;;12.23;6.63;;;2.60;99.90;;;;;;5010707;28;20065;-84
2023/03/17 01:39:15;;;;;;;9.68;5.82;;;2.60;99.90;;;;;;5036802;28;20046;-85
2023/03/17 01:41:41;;;;;;;9.85;6.25;;;2.60;99.90;;;;;;5028948;28;20018;-84
2023/03/17 01:44:17;;;;;;;7.20;4.60;;;2.70;99.90;;;;;;5024486;28;20101;-84
2023/03/17 01:46:44;;;;;;;9.80;5.43;;;2.60;99.90;;;;;;5019848;28;20415;-85
2023/03/17 01:49:19;;;;;;;5.80;4.22;;;2.60;99.90;;;;;;5018928;28;20026;-84
2023/03/17 01:52:06;;;;;;;7.78;4.40;;;2.60;99.90;;;;;;5019529;28;20029;-84
2023/03/17 01:54:51;;;;;;;;;;;2.60;99.90;;;;;;5011596;28;20442;-84
2023/03/17 01:57:31;;;;;;;5.40;3.80;;;2.60;99.90;;;;;;5021077;28;19913;-84
2023/03/17 02:00:25;;;;;;;6.50;3.58;;;2.50;99.90;;;;;;5021976;28;20097;-85
2023/03/17 02:02:54;;;;;;;7.72;3.80;;;2.40;99.90;;;;;;5011666;28;20030;-83
2023/03/17 02:05:31;;;;;;;6.50;4.22;;;2.50;99.90;;;;;;5020447;28;20026;-84
2023/03/17 02:07:57;;;;;;;7.28;4.38;;;2.40;99.90;;;;;;5020639;28;20073;-84
2023/03/17 02:10:27;;;;;;;6.60;3.95;;;2.40;99.90;;;;;;5019653;28;20026;-83
2023/03/17 02:12:58;;;;;;;7.60;4.93;;;2.30;99.90;;;;;;5019451;28;20018;-85
2023/03/17 02:15:34;;;;;;;7.82;4.50;;;2.30;99.90;;;;;;5011353;28;20041;-86
2023/03/17 02:18:00;;;;;;;8.50;4.20;;;2.30;99.90;;;;;;5036859;28;20506;-84
2023/03/17 02:20:26;;;;;;;7.93;4.78;;;2.20;99.90;;;;;;5024383;28;20026;-85
2023/03/17 02:22:54;;;;;;;6.03;3.78;;;2.20;99.90;;;;;;5018405;28;20446;-85
2023/03/17 02:25:22;;;;;;;9.23;4.68;;;2.10;99.90;;;;;;5013596;28;20030;-84
2023/03/17 02:27:53;;;;;;;9.20;4.72;;;2.10;99.90;;;;;;5018644;28;20018;-86
2023/03/17 02:30:21;;;;;;;6.53;4.00;;;2.10;99.90;;;;;;5020482;28;20096;-86
2023/03/17 02:32:46;;;;;;;;;;;2.10;99.90;;;;;;5020232;28;20509;-87
2023/03/17 02:35:13;;;;;;;6.03;3.53;;;2.20;99.90;;;;;;5017486;28;20019;-84
2023/03/17 02:37:40;;;;;;;6.82;4.43;;;2.10;99.90;;;;;;5017022;28;20022;-84
2023/03/17 02:40:10;;;;;;;6.20;3.78;;;2.10;99.90;;;;;;5014255;28;20032;-85
2023/03/17 02:42:38;;;;;;;6.72;3.53;;;2.00;99.90;;;;;;5017732;28;20029;-86
2023/03/17 02:45:05;;;;;;;6.25;3.72;;;2.00;99.90;;;;;;5022701;28;20033;-83
2023/03/17 02:48:19;;;;;;;6.40;4.05;;;2.10;99.90;;;;;;5021861;28;20025;-88
2023/03/17 02:50:45;;;;;;;5.93;3.20;;;2.10;99.90;;;;;;5001386;28;20494;-86
2023/03/17 02:53:11;;;;;;;7.57;3.85;;;2.10;99.90;;;;;;5020130;28;20030;-87
2023/03/17 02:55:42;;;;;;;5.15;3.13;;;2.10;99.90;;;;;;5003445;28;20038;-86
2023/03/17 02:58:08;;;;;;;5.20;3.50;;;2.10;99.90;;;;;;5021853;28;20061;-85
2023/03/17 03:00:34;;;;;;;5.75;3.33;;;2.10;99.90;;;;;;4991663;28;20038;-86
2023/03/17 03:03:02;;;;;;;3.88;3.20;;;2.10;99.90;;;;;;5001718;28;20471;-85
2023/03/17 03:05:28;;;;;;;6.95;3.50;;;2.10;99.90;;;;;;4998859;28;20518;-82
2023/03/17 03:07:54;;;;;;;5.35;3.08;;;2.20;99.90;;;;;;4999329;28;20026;-84
2023/03/17 03:10:20;;;;;;;6.03;3.13;;;2.10;99.90;;;;;;5010717;28;20141;-84
2023/03/17 03:12:46;;;;;;;5.95;4.05;;;2.20;99.90;;;;;;5013129;28;20022;-83
2023/03/17 03:15:13;;;;;;;4.22;2.55;;;2.10;99.90;;;;;;4993886;28;20434;-82
2023/03/17 03:17:39;;;;;;;7.25;2.72;;;2.10;99.90;;;;;;5009896;28;20028;-84
2023/03/17 03:20:06;;;;;;;4.05;2.58;;;2.10;99.70;;;;;;4986557;28;20144;-83
2023/03/17 03:22:31;;;;;;;5.40;2.55;;;2.10;99.70;;;;;;5010771;28;20546;-85
2023/03/17 03:24:57;;;;;;;5.93;3.22;;;2.10;99.60;;;;;;4996777;28;20037;-86
2023/03/17 03:27:23;;;;;;;4.20;2.38;;;2.20;99.60;;;;;;5003824;28;20084;-85
2023/03/17 03:29:50;;;;;;;4.88;2.92;;;2.20;99.30;;;;;;5024641;28;20022;-85
2023/03/17 03:32:16;;;;;;;4.25;2.33;;;2.20;99.20;;;;;;5021816;28;20025;-85
2023/03/17 03:34:42;;;;;;;4.13;2.42;;;2.20;98.90;;;;;;5018647;28;20025;-85
2023/03/17 03:37:08;;;;;;;6.93;2.38;;;2.20;98.60;;;;;;5021580;28;20510;-85
2023/03/17 03:39:33;;;;;;;6.88;2.70;;;2.20;98.40;;;;;;5025815;28;20022;-85
2023/03/17 03:42:00;;;;;;;4.50;2.15;;;2.20;98.40;;;;;;5031873;28;20022;-85
2023/03/17 03:44:26;;;;;;;6.35;2.60;;;2.20;98.20;;;;;;5024372;28;20023;-85
2023/03/17 03:46:51;;;;;;;3.35;2.47;;;2.20;98.20;;;;;;5015518;28;20364;-86
2023/03/17 03:49:17;;;;;;;3.72;2.15;;;2.30;97.70;;;;;;5016147;28;20036;-86
2023/03/17 03:51:43;;;;;;;3.67;2.60;;;2.20;97.40;;;;;;5013347;28;20037;-84
2023/03/17 03:54:09;;;;;;;4.93;2.35;;;2.30;97.00;;;;;;5020115;28;20041;-86
2023/03/17 03:56:35;;;;;;;6.38;2.22;;;2.20;97.10;;;;;;5025833;28;20030;-84
2023/03/17 03:59:01;;;;;;;4.88;1.88;;;2.20;96.90;;;;;;5023259;28;20018;-83
2023/03/17 04:01:27;;;;;;;6.43;2.13;;;2.30;96.60;;;;;;5016996;28;20081;-84
2023/03/17 04:03:53;;;;;;;5.97;2.28;;;2.20;96.30;;;;;;5017423;28;20026;-85
2023/03/17 04:06:18;;;;;;;8.13;3.85;;;2.20;96.30;;;;;;5029212;28;20116;-85
2023/03/17 04:08:44;;;;;;;4.20;2.25;;;2.20;96.50;;;;;;5024450;28;20472;-83
2023/03/17 04:11:10;;;;;;;3.78;2.45;;;2.30;96.30;;;;;;5015755;28;20056;-85
2023/03/17 04:13:37;;;;;;;4.50;1.90;;;2.30;95.90;;;;;;5014160;28;20100;-86
2023/03/17 04:16:03;;;;;;;3.95;1.83;;;2.30;95.80;;;;;;5011642;28;20434;-85
2023/03/17 04:18:30;;;;;;;6.40;1.92;;;2.30;95.70;;;;;;5012751;28;20567;-88
2023/03/17 04:20:56;;;;;;;6.88;4.38;;;2.30;95.70;;;;;;5012661;28;20025;-85
2023/03/17 04:23:22;;;;;;;5.13;2.28;;;2.30;95.30;;;;;;5014115;28;20574;-86
2023/03/17 04:25:51;;;;;;;3.45;2.25;;;2.30;95.40;;;;;;5012687;28;20101;-85
2023/03/17 04:28:16;;;;;;;6.65;2.17;;;2.30;95.20;;;;;;5013475;28;20379;-86
2023/03/17 04:30:42;;;;;;;6.22;3.08;;;2.30;94.80;;;;;;5013668;28;20029;-86
2023/03/17 04:33:08;;;;;;;3.75;1.80;;;2.30;95.00;;;;;;5013052;28;20060;-86
2023/03/17 04:35:34;;;;;;;3.40;2.05;;;2.30;94.90;;;;;;5023090;28;20106;-83
2023/03/17 04:38:01;;;;;;;6.20;2.10;;;2.30;94.90;;;;;;5018086;28;20030;-86
2023/03/17 04:40:27;;;;;;;3.40;1.92;;;2.40;94.70;;;;;;5015436;28;20028;-86
2023/03/17 04:42:53;;;;;;;4.80;1.98;;;2.40;94.40;;;;;;5018185;28;20188;-86
2023/03/17 04:45:20;;;;;;;2.72;2.10;;;2.40;93.90;;;;;;5021783;28;20050;-87
2023/03/17 04:47:46;;;;;;;2.70;1.58;;;2.40;93.90;;;;;;5019744;28;20132;-86
2023/03/17 04:50:13;;;;;;;7.63;2.50;;;2.40;93.70;;;;;;5020624;28;20078;-85
2023/03/17 04:52:40;;;;;;;4.85;1.70;;;2.40;93.40;;;;;;5020974;28;20057;-87
2023/03/17 04:55:07;;;;;;;6.15;2.15;;;2.30;93.40;;;;;;5007321;28;20101;-87
2023/03/17 04:57:34;;;;;;;3.63;1.77;;;2.40;93.40;;;;;;5042017;28;20022;-87
2023/03/17 05:00:00;;;;;;;;;;;2.40;93.20;;;;;;5002463;28;20128;-85
2023/03/17 05:02:27;;;;;;;3.88;1.92;;;2.40;92.80;;;;;;5030568;28;20386;-86
2023/03/17 05:04:53;;;;;;;4.63;1.85;;;2.40;92.50;;;;;;5018982;28;20022;-86
2023/03/17 05:07:18;;;;;;;3.63;1.80;;;2.40;92.30;;;;;;5015357;28;20454;-87
2023/03/17 05:09:45;;;;;;;4.53;2.22;;;2.50;92.10;;;;;;5016875;28;20041;-88
2023/03/17 05:12:12;;;;;;;5.70;2.30;;;2.50;92.00;;;;;;5024214;28;20022;-86
2023/03/17 05:14:38;;;;;;;4.07;2.40;;;2.60;92.00;;;;;;5010398;28;20060;-87
2023/03/17 05:17:04;;;;;;;6.40;2.80;;;2.60;92.00;;;;;;5018113;28;20536;-85
2023/03/17 05:19:30;;;;;;;3.88;1.92;;;2.70;91.80;;;;;;5019267;28;20074;-87
2023/03/17 05:21:56;;;;;;;3.42;1.90;;;2.80;91.70;;;;;;5015118;28;20105;-86
2023/03/17 05:24:24;;;;;;;4.32;2.10;;;2.90;91.60;;;;;;5015502;28;20136;-84
2023/03/17 05:26:50;;;;;;;3.42;1.77;;;3.00;91.30;;;;;;5015174;28;20026;-85
2023/03/17 05:29:16;;;;;;;4.25;1.70;;;3.00;90.70;;;;;;5014605;28;20037;-84
2023/03/17 05:31:42;;;;;;;4.78;2.67;;;2.90;90.10;;;;;;5022902;28;20025;-85
2023/03/17 05:34:07;;;;;;;4.20;1.92;;;2.90;90.40;;;;;;5027464;28;20026;-84
2023/03/17 05:36:34;;;;;;;3.22;1.85;;;2.90;90.40;;;;;;5031630;28;20100;-86
2023/03/17 05:39:00;;;;;;;6.70;1.70;;;2.90;89.70;;;;;;5024991;28;20029;-86
2023/03/17 05:41:26;;;;;;;3.17;1.42;;;2.90;89.50;;;;;;5028409;28;20026;-86
2023/03/17 05:43:51;;;;;;;6.78;2.50;;;3.00;89.30;;;;;;5023684;28;20025;-86
2023/03/17 05:46:17;;;;;;;5.28;2.03;;;3.00;89.00;;;;;;5020042;28;20454;-86
2023/03/17 05:48:45;;;;;;;5.85;1.77;;;3.10;89.00;;;;;;5018431;28;20029;-86
2023/03/17 05:51:12;;;;;;;3.20;1.45;;;3.10;88.10;;;;;;5027709;28;20022;-86
2023/03/17 05:53:38;;;;;;;5.88;1.65;;;3.10;87.80;;;;;;5017050;28;20026;-85
2023/03/17 05:56:04;;;;;;;4.65;2.80;;;3.10;88.00;;;;;;5030170;28;20074;-86
2023/03/17 05:58:30;;;;;;;4.97;2.03;;;3.10;87.90;;;;;;5030803;28;20026;-88
2023/03/17 06:00:57;;;;;;;2.97;1.98;;;3.00;87.00;;;;;;5029381;28;20045;-90
2023/03/17 06:03:23;;;;;;;8.27;3.10;;;3.00;86.80;;;;;;5021006;28;20021;-87
2023/03/17 06:05:49;;;;;;;5.75;1.77;;;3.00;87.20;;;;;;5038911;28;20093;-90
2023/03/17 06:08:15;;;;;;;4.88;1.73;;;3.00;87.00;;;;;;5034697;28;20054;-88
2023/03/17 06:10:45;;;;;;;2.42;2.00;;;3.10;86.30;;;;;;5013662;28;20054;-88
2023/03/17 06:13:14;;;;;;;4.75;1.85;;;3.10;85.00;;;;;;5033169;28;20045;-88
2023/03/17 06:15:41;;;;;;;5.55;2.63;;;3.10;84.50;;;;;;5033234;28;20125;-88
2023/03/17 06:18:07;;;;;;;8.50;2.63;;;3.10;85.10;;;;;;5042238;28;20032;-88
2023/03/17 06:20:33;;;;;;;6.35;2.03;;;3.10;85.30;;;;;;5040290;28;20026;-87
2023/03/17 06:23:00;;;;;;;2.95;1.65;;;3.20;84.80;;;;;;5023341;28;20018;-87
2023/03/17 06:25:26;;;;;;;3.78;1.88;;;3.30;84.50;;;;;;5037631;28;20045;-89
2023/03/17 06:27:53;;;;;;;4.75;1.88;;;3.30;84.30;;;;;;5037182;28;20022;-87
2023/03/17 06:30:20;;;;;;;3.80;2.30;;;3.40;84.00;;;;;;5023000;28;20022;-86
2023/03/17 06:32:46;;;;;;;6.28;3.15;;;3.50;83.90;;;;;;5027437;28;20037;-88
2023/03/17 06:35:12;;;;;;;4.65;1.80;;;3.50;83.40;;;;;;5029015;28;20033;-87
2023/03/17 06:37:38;;;;;;;8.70;2.58;;;3.50;82.70;;;;;;5024406;28;20029;-87
2023/03/17 06:40:08;;;;;;;4.68;2.33;;;3.60;82.30;;;;;;5021690;28;20398;-87
2023/03/17 06:42:34;;;;;;;4.13;2.35;;;3.70;82.40;;;;;;5023160;28;20367;-88
2023/03/17 06:45:00;;;;;;;4.70;2.25;;;3.90;81.40;;;;;;5031807;28;20029;-86
2023/03/17 06:47:27;;;;;;;2.65;1.52;;;3.80;81.60;;;;;;5024843;28;20493;-88
2023/03/17 06:49:53;;;;;;;2.92;2.17;;;3.90;80.80;;;;;;5034623;28;20546;-89
2023/03/17 06:52:19;;;;;;;4.85;2.05;;;3.90;81.90;;;;;;5033500;28;20021;-86
2023/03/17 06:54:44;;;;;;;5.45;2.15;;;4.10;81.20;;;;;;5036557;28;20037;-89
2023/03/17 06:57:11;;;;;;;8.07;2.03;;;4.30;80.50;;;;;;5021594;28;20097;-88
2023/03/17 06:59:37;;;;;;;6.85;2.53;;;4.50;79.80;;;;;;5023474;28;20036;-86
2023/03/17 07:02:04;;;;;;;7.03;1.85;;;4.50;79.10;;;;;;5025151;28;20042;-86
2023/03/17 07:04:30;;;;;;;5.27;2.30;;;4.50;77.80;;;;;;5038102;28;20029;-85
2023/03/17 07:06:56;;;;;;;5.63;2.17;;;4.40;77.60;;;;;;5023462;28;20025;-85
2023/03/17 07:09:23;;;;;;;3.83;2.15;;;4.40;78.00;;;;;;5026479;28;20069;-87
2023/03/17 07:11:48;;;;;;;4.60;2.35;;;4.50;77.80;;;;;;5017531;28;20022;-87
2023/03/17 07:14:14;;;;;;;4.60;2.03;;;4.50;77.20;;;;;;5022240;28;20101;-86
2023/03/17 07:16:40;;;;;;;4.18;1.98;;;4.50;76.70;;;;;;5030040;28;20056;-85
2023/03/17 07:19:07;;;;;;;4.53;1.92;;;4.60;76.40;;;;;;5039788;28;20029;-84
2023/03/17 07:21:33;;;;;;;9.18;2.70;;;4.70;76.30;;;;;;5040574;28;20103;-86
2023/03/17 07:23:59;;;;;;;6.57;2.50;;;4.70;76.60;;;;;;5046332;28;20028;-85
2023/03/17 07:26:25;;;;;;;10.02;2.53;;;4.90;76.40;;;;;;5036566;28;20049;-86
2023/03/17 07:28:51;;;;;;;6.75;2.70;;;5.10;75.00;;;;;;5033762;28;20006;-85
2023/03/17 07:31:17;;;;;;;4.82;2.60;;;5.10;75.40;;;;;;5052193;28;20029;-88
2023/03/17 07:33:44;;;;;;;5.38;2.50;;;5.20;73.50;;;;;;5024117;28;20028;-81
2023/03/17 07:36:10;;;;;;;8.45;3.10;;;5.30;73.80;;;;;;5029382;28;20029;-81
2023/03/17 07:38:54;;;;;;;7.97;2.83;;;5.40;74.20;;;;;;5032536;28;20021;-82
2023/03/17 07:41:21;;;;;;;12.32;5.35;;;5.60;72.70;;;;;;5033097;28;20026;-84
2023/03/17 07:43:47;;;;;;;6.63;3.00;;;5.70;72.80;;;;;;5039097;28;20014;-87
2023/03/17 07:46:13;;;;;;;7.60;2.67;;;5.70;71.90;;;;;;5025786;28;20030;-86
2023/03/17 07:48:42;;;;;;;5.05;2.78;;;5.80;71.40;;;;;;5018390;28;20026;-88
2023/03/17 07:51:14;;;;;;;4.88;2.95;;;5.90;70.40;;;;;;5009938;28;20046;-86
2023/03/17 07:53:41;;;;;;;10.38;2.75;;;5.90;70.50;;;;;;5021790;28;20033;-87
2023/03/17 07:56:08;;;;;;;4.55;2.88;;;6.10;69.50;;;;;;5020288;28;20482;-86
2023/03/17 07:58:34;;;;;;;8.47;3.50;;;6.40;68.70;;;;;;5025295;28;20056;-87
2023/03/17 08:01:02;;;;;;;6.13;3.67;;;6.80;69.10;;;;;;5029529;28;20128;-85
2023/03/17 08:03:29;;;;;;;5.47;3.50;;;7.20;68.20;;;;;;5009241;28;20037;-87
2023/03/17 08:05:56;;;;;;;10.77;3.17;;;7.80;67.40;;;;;;5025399;28;20137;-88
2023/03/17 08:08:24;;;;;;;6.55;3.00;;;8.30;63.80;;;;;;5024330;28;20404;-86
2023/03/17 08:10:51;;;;;;;8.07;2.70;;;8.70;61.90;;;;;;5022599;28;20033;-85
2023/03/17 08:13:18;;;;;;;5.75;3.05;;;9.60;61.80;;;;;;5020624;28;20034;-86
2023/03/17 08:15:45;;;;;;;6.38;2.90;;;10.60;57.90;;;;;;5020959;28;20029;-88
2023/03/17 08:18:14;;;;;;;8.52;3.05;;;11.30;56.30;;;;;;5023806;28;20022;-84
2023/03/17 08:20:43;;;;;;;7.15;2.83;;;12.20;54.40;;;;;;5024980;28;20026;-86
2023/03/17 08:23:10;;;;;;;5.65;2.53;;;13.00;52.30;;;;;;5010522;28;20026;-86
2023/03/17 08:25:36;;;;;;;6.65;2.50;;;13.00;49.50;;;;;;5023730;28;20451;-86
2023/03/17 08:28:03;;;;;;;3.55;2.75;;;12.90;48.00;;;;;;5038036;28;20026;-86
2023/03/17 08:30:29;;;;;;;8.35;2.42;;;12.70;49.20;;;;;;5024761;28;20162;-86
2023/03/17 08:32:55;;;;;;;8.10;2.23;;;12.60;48.20;;;;;;5039014;28;20026;-85
2023/03/17 08:35:22;;;;;;;7.25;2.60;;;12.70;47.40;;;;;;5039350;28;20094;-86
2023/03/17 08:37:53;;;;;;;7.13;2.95;;;12.10;47.90;;;;;;5040127;28;20066;-86
2023/03/17 08:40:19;;;;;;;4.38;1.98;;;12.30;48.10;;;;;;5038365;28;20041;-87
2023/03/17 08:42:48;;;;;;;4.53;2.63;;;12.40;47.00;;;;;;5036820;28;20093;-85
2023/03/17 08:45:18;;;;;;;5.53;2.17;;;12.70;46.60;;;;;;5024990;28;20032;-86
2023/03/17 08:47:47;;;;;;;4.97;2.38;;;12.60;46.00;;;;;;5026975;28;20085;-88
2023/03/17 08:50:19;;;;;;;8.23;2.67;;;12.30;46.90;;;;;;5025873;28;20026;-86
2023/03/17 08:52:48;;;;;;;6.03;2.67;;;12.00;47.00;;;;;;5026864;28;20018;-87
2023/03/17 08:55:18;;;;;;;3.90;2.78;;;;;;;;;;5034131;28;20050;-86
2023/03/17 08:57:45;;;;;;;6.03;2.15;;;14.60;45.00;;;;;;5035588;28;20033;-87
2023/03/17 09:00:19;;;;;;;4.83;2.23;;;15.00;43.90;;;;;;5009979;28;20026;-87
2023/03/17 09:02:45;;;;;;;3.78;1.88;;;17.30;41.00;;;;;;5032687;28;20395;-89
2023/03/17 09:05:13;;;;;;;6.05;2.33;;;17.50;39.10;;;;;;5020209;28;20026;-87
2023/03/17 09:07:40;;;;;;;4.72;2.30;;;;;;;;;;5028743;28;20052;-89
2023/03/17 09:10:07;;;;;;;7.80;2.78;;;;;;;;;;5020685;28;20484;-88
2023/03/17 09:12:33;;;;;;;5.45;2.17;;;19.90;35.00;;;;;;5024507;28;20020;-87
2023/03/17 09:15:00;;;;;;;3.88;1.90;;;19.70;34.30;;;;;;5023665;28;20045;-87
2023/03/17 09:17:26;;;;;;;;;;;19.30;34.40;;;;;;5018205;28;20044;-87
2023/03/17 09:19:53;;;;;;;7.18;2.45;;;19.60;38.10;;;;;;5023370;28;20015;-88
2023/03/17 09:22:19;;;;;;;5.95;2.30;;;20.10;34.00;;;;;;5029272;28;20026;-88
2023/03/17 09:24:45;;;;;;;5.50;2.38;;;20.60;33.10;;;;;;5034534;28;20079;-88
2023/03/17 09:27:12;;;;;;;4.18;2.60;;;;;;;;;;5025709;28;20100;-87
2023/03/17 09:29:38;;;;;;;2.83;2.13;;;21.50;30.90;;;;;;5029237;28;20022;-86
2023/03/17 09:32:04;;;;;;;4.50;2.33;;;21.40;30.90;;;;;;5026105;28;20014;-86
2023/03/17 09:34:30;;;;;;;4.57;2.28;;;20.60;30.30;;;;;;5020413;28;20034;-88
2023/03/17 09:36:56;;;;;;;4.93;2.00;;;18.90;31.60;;;;;;5021408;28;20032;-87
2023/03/17 09:39:23;;;;;;;5.63;2.40;;;;;;;;;;5023270;28;20037;-88
2023/03/17 09:42:32;;;;;;;5.88;2.17;;;16.40;33.70;;;;;;5024768;28;20032;-86
2023/03/17 09:45:20;;;;;;;6.07;2.47;;;16.40;35.40;;;;;;5017565;28;20643;-86
2023/03/17 09:48:32;;;;;;;4.65;2.10;;;17.60;35.30;;;;;;5018983;28;20105;-90
2023/03/17 09:51:08;;;;;;;5.65;2.00;;;18.60;34.20;;;;;;4999314;28;20487;-86
2023/03/17 09:53:46;;;;;;;5.28;2.67;;;19.10;32.40;;;;;;5016178;28;20077;-87
2023/03/17 09:56:15;;;;;;;5.95;2.03;;;18.30;32.10;;;;;;5021079;28;20209;-85
2023/03/17 09:58:53;;;;;;;5.10;2.20;;;17.50;32.00;;;;;;5021141;28;20022;-85
2023/03/17 10:01:19;;;;;;;5.38;1.60;;;17.00;32.10;;;;;;5022506;28;20073;-85
2023/03/17 10:03:46;;;;;;;3.50;1.85;;;16.80;32.00;;;;;;5019902;28;20041;-89
2023/03/17 10:06:35;;;;;;;2.63;1.40;;;17.40;31.40;;;;;;5026645;28;20103;-88
2023/03/17 10:09:20;;;;;;;2.83;1.55;;;18.30;30.70;;;;;;5035787;28;20387;-88
2023/03/17 10:11:49;;;;;;;2.88;1.27;;;19.10;29.90;;;;;;5017060;28;20049;-89
2023/03/17 10:14:22;;;;;;;2.10;1.23;;;19.00;27.50;;;;;;5033992;28;20017;-84
2023/03/17 10:17:16;;;;;;;3.63;1.13;;;19.10;27.20;;;;;;5027729;28;20061;-86
2023/03/17 10:20:00;;;;;;;2.47;1.80;;;18.10;26.70;;;;;;5032911;28;20017;-86
2023/03/17 10:22:43;;;;;;;2.00;1.25;;;16.50;27.40;;;;;;5026804;28;20029;-83
2023/03/17 10:25:18;;;;;;;4.38;1.33;;;15.80;27.40;;;;;;5038613;28;20032;-83
2023/03/17 10:28:19;;;;;;;2.60;1.20;;;14.80;27.40;;;;;;5029477;28;20022;-83
2023/03/17 10:30:45;;;;;;;3.85;1.45;;;13.00;28.80;;;;;;5027381;28;20026;-84
2023/03/17 10:33:11;;;;;;;3.63;1.52;;;11.30;30.00;;;;;;5017443;28;20064;-86
2023/03/17 10:35:38;;;;;;;2.60;1.60;;;10.20;31.90;;;;;;5031224;28;20041;-86
2023/03/17 10:38:33;;;;;;;5.00;2.00;;;9.50;32.80;;;;;;5028633;28;20044;-89
2023/03/17 10:41:02;;;;;;;4.22;2.70;;;;;;;;;;5017773;28;20061;-84
2023/03/17 10:43:30;;;;;;;4.03;1.90;;;8.50;34.40;;;;;;5023053;28;20033;-85
2023/03/17 10:46:03;;;;;;;;;;;8.20;36.50;;;;;;5019687;28;20022;-86
2023/03/17 10:48:34;;;;;;;2.75;1.70;;;8.00;38.00;;;;;;5016280;28;19905;-85
2023/03/17 10:51:06;;;;;;;4.22;1.63;;;7.70;38.50;;;;;;5017464;28;20026;-89
2023/03/17 10:53:41;;;;;;;6.38;1.90;;;7.50;39.70;;;;;;5030376;28;20021;-91
2023/03/17 10:56:19;;;;;;;4.47;2.17;;;7.40;40.90;;;;;;5017044;28;20044;-87
2023/03/17 10:58:48;;;;;;;;;;;7.20;40.70;;;;;;5015624;28;20036;-86
2023/03/17 11:01:20;;;;;;;5.13;2.33;;;6.90;40.80;;;;;;5015735;28;19917;-86
2023/03/17 11:03:47;;;;;;;1.92;1.45;;;6.80;41.50;;;;;;5017399;28;20045;-85
2023/03/17 11:06:19;;;;;;;4.35;1.60;;;6.80;41.60;;;;;;5016783;28;20395;-88
2023/03/17 11:08:49;;;;;;;3.97;1.80;;;6.70;41.40;;;;;;5021352;28;20033;-86
2023/03/17 11:11:32;;;;;;;2.50;1.35;;;6.50;40.80;;;;;;5019652;28;20387;-86
2023/03/17 11:14:03;;;;;;;4.90;1.65;;;;;;;;;;5020001;28;20083;-83
2023/03/17 11:16:33;;;;;;;5.20;2.10;;;6.40;41.20;;;;;;5023567;28;20037;-84
2023/03/17 11:19:01;;;;;;;2.80;1.45;;;6.40;41.80;;;;;;5024647;28;20018;-82
2023/03/17 11:21:40;;;;;;;2.63;1.45;;;6.30;42.50;;;;;;5009107;28;20031;-82
2023/03/17 11:24:14;;;;;;;3.05;1.92;;;6.20;42.80;;;;;;5026495;28;20080;-84
2023/03/17 11:26:43;;;;;;;6.85;1.95;;;6.20;43.00;;;;;;5017697;28;20073;-82
2023/03/17 11:29:50;;;;;;;3.78;2.20;;;6.10;42.90;;;;;;5019640;28;20022;-83
2023/03/17 11:32:27;;;;;;;3.35;1.85;;;6.10;43.10;;;;;;4958190;29;20051;-84
2023/03/17 11:35:16;;;;;;;4.22;2.08;;;6.20;43.60;;;;;;5019844;28;20034;-83
2023/03/17 11:37:57;;;;;;;2.85;1.40;;;6.20;43.20;;;;;;5014178;28;20033;-82
2023/03/17 11:40:33;;;;;;;2.10;1.45;;;6.20;44.20;;;;;;5016031;28;20022;-83
2023/03/17 11:43:23;;;;;;;4.95;2.10;;;6.10;44.10;;;;;;5011772;28;20025;-84
2023/03/17 11:45:48;;;;;;;4.85;1.92;;;6.10;44.30;;;;;;5018672;28;20087;-84
2023/03/17 11:48:53;;;;;;;3.05;1.60;;;6.10;43.90;;;;;;5014304;28;20022;-84
2023/03/17 11:51:39;;;;;;;4.05;1.65;;;6.10;43.20;;;;;;5004391;28;20073;-83
2023/03/17 11:54:25;;;;;;;7.60;2.38;;;6.10;43.00;;;;;;5018465;28;20014;-82
2023/03/17 11:56:58;;;;;;;2.22;1.40;;;6.20;42.90;;;;;;4990916;28;20499;-83
2023/03/17 11:59:51;;;;;;;3.05;1.05;;;6.10;42.30;;;;;;5004840;28;20377;-83
2023/03/17 12:02:28;;;;;;;3.30;1.77;;;6.10;42.60;;;;;;5019907;28;20045;-83
2023/03/17 12:05:17;;;;;;;1.35;1.00;;;6.10;42.70;;;;;;5022831;28;20030;-86
2023/03/17 12:07:59;;;;;;;2.42;1.70;;;6.10;42.70;;;;;;5025397;28;20065;-84
2023/03/17 12:10:40;;;;;;;4.63;1.48;;;6.10;43.00;;;;;;5023137;28;20036;-83
2023/03/17 12:13:20;;;;;;;4.45;1.65;;;6.10;42.70;;;;;;5013248;28;20034;-83
2023/03/17 12:16:02;;;;;;;2.90;1.40;;;6.10;42.50;;;;;;5013903;28;20396;-83
2023/03/17 12:19:02;;;;;;;3.42;1.48;;;6.10;42.20;;;;;;5035000;28;20112;-83
2023/03/17 12:21:46;;;;;;;6.50;1.88;;;6.00;41.80;;;;;;5012006;28;20471;-84
2023/03/17 12:24:23;;;;;;;3.67;1.80;;;6.00;42.50;;;;;;5017022;28;20029;-84
2023/03/17 12:27:09;;;;;;;;;;;6.00;41.90;;;;;;5035047;28;20129;-86
2023/03/17 12:29:52;;;;;;;4.05;1.60;;;6.00;42.00;;;;;;5028270;28;19940;-82
2023/03/17 12:32:36;;;;;;;4.40;1.70;;;6.10;42.50;;;;;;5017303;28;20093;-84
2023/03/17 12:35:21;;;;;;;5.43;1.38;;;6.30;41.70;;;;;;5013566;28;20430;-84
2023/03/17 12:37:48;;;;;;;3.78;1.77;;;6.50;41.10;;;;;;5028968;28;20034;-83
2023/03/17 12:40:23;;;;;;;3.43;1.70;;;6.40;41.40;;;;;;5030536;28;20064;-82
2023/03/17 12:43:20;;;;;;;4.82;1.42;;;6.30;41.80;;;;;;5016430;28;20267;-83
2023/03/17 12:46:28;;;;;;;4.55;2.03;;;6.30;41.70;;;;;;5023874;28;20106;-83
2023/03/17 12:49:22;;;;;;;2.28;1.55;;;6.20;41.60;;;;;;5016900;28;20030;-83
2023/03/17 12:52:22;;;;;;;3.08;1.88;;;6.10;41.40;;;;;;5016976;28;20124;-82
2023/03/17 12:54:50;;;;;;;4.43;2.20;;;6.10;41.00;;;;;;5017072;28;20093;-82
2023/03/17 12:57:20;;;;;;;3.72;2.22;;;6.10;41.10;;;;;;5016900;28;20081;-82
2023/03/17 12:59:49;;;;;;;5.75;2.00;;;6.10;40.90;;;;;;5016628;28;20223;-82
2023/03/17 13:02:28;;;;;;;3.28;2.20;;;6.10;41.50;;;;;;5004912;28;20053;-83
2023/03/17 13:04:59;;;;;;;5.35;2.20;;;6.10;40.70;;;;;;5017915;28;20018;-85
2023/03/17 13:07:36;;;;;;;5.70;1.75;;;6.10;40.50;;;;;;5018845;28;20026;-83
2023/03/17 13:10:02;;;;;;;;;;;6.10;40.40;;;;;;5017605;28;20026;-81
2023/03/17 13:12:43;;;;;;;2.63;0.98;;;6.10;40.40;;;;;;5022539;28;20017;-84
2023/03/17 13:15:24;;;;;;;3.53;2.00;;;6.00;40.00;;;;;;5015966;28;20034;-82
2023/03/17 13:18:09;;;;;;;2.28;1.38;;;6.00;40.40;;;;;;5022268;28;20021;-84